Time;durP1;ratioP1;P1;durP2;ratioP2;P2;SDS_P1;SDS_P2;PMS_P1;PMS_P2;Temp;Humidity;BMP_temperature;BMP_pressure;BME280_temperature;BME280_humidity;BME280_pressure;Samples;Min_cycle;Max_cycle;Signal;HPM_P1;HPM_P2
2023/10/18 00:00:34;;;;;;;;;;;;;;;13.13;62.92;99848.81;5074537;28;19916;-77
2023/10/18 00:03:03;;;;;;;;;;;;;;;13.17;64.75;99857.25;5074621;28;19912;-76
2023/10/18 00:05:29;;;;;;;;;;;;;;;13.19;62.69;99850.75;5074380;28;20026;-76
2023/10/18 00:07:56;;;;;;;;;;;;;;;13.17;62.40;99855.41;5074389;28;20011;-77
2023/10/18 00:10:22;;;;;;;;;;;;;;;13.19;62.83;99857.88;5074527;28;19913;-77
2023/10/18 00:12:48;;;;;;;;;;;;;;;13.20;63.15;99847.09;5074375;28;20302;-77
2023/10/18 00:15:14;;;;;;;;;;;;;;;13.21;62.45;99842.63;5073097;28;20317;-76
2023/10/18 00:17:39;;;;;;;;;;;;;;;13.25;63.38;99839.41;5073896;28;20003;-76
2023/10/18 00:20:13;;;;;;;;;;;;;;;13.29;64.65;99842.50;5074242;28;19966;-76
2023/10/18 00:22:38;;;;;;;;;;;;;;;13.26;62.98;99846.34;5072804;28;19913;-77
2023/10/18 00:25:06;;;;;;;;;;;;;;;13.24;63.82;99843.06;5074076;28;19979;-77
2023/10/18 00:27:31;;;;;;;;;;;;;;;13.26;61.45;99845.53;5074284;28;20059;-76
2023/10/18 00:29:58;;;;;;;;;;;;;;;13.25;63.28;99844.69;5072890;28;20002;-76
2023/10/18 00:32:25;;;;;;;;;;;;;;;13.24;62.90;99840.41;5072599;28;19912;-75
2023/10/18 00:34:53;;;;;;;;;;;;;;;13.26;62.38;99840.22;5073964;28;19919;-76
2023/10/18 00:37:18;;;;;;;;;;;;;;;13.23;62.93;99833.47;5074048;28;19922;-76
2023/10/18 00:39:44;;;;;;;;;;;;;;;13.22;64.72;99841.59;5073983;28;19917;-75
2023/10/18 00:42:28;;;;;;;;;;;;;;;13.23;63.66;99840.59;5072410;28;20307;-76
2023/10/18 00:45:01;;;;;;;;;;;;;;;13.20;63.25;99836.50;5073706;28;19912;-76
2023/10/18 00:47:27;;;;;;;;;;;;;;;13.18;65.03;99846.47;5073743;28;19912;-76
2023/10/18 00:49:53;;;;;;;;;;;;;;;13.22;63.62;99838.94;5072353;28;20016;-75
2023/10/18 00:52:19;;;;;;;;;;;;;;;13.22;62.91;99828.34;5073866;28;19947;-76
2023/10/18 00:54:45;;;;;;;;;;;;;;;13.18;64.11;99835.84;5073541;28;19923;-75
2023/10/18 00:57:11;;;;;;;;;;;;;;;13.11;64.81;99832.28;5073467;28;19917;-76
2023/10/18 00:59:38;;;;;;;;;;;;;;;13.12;64.20;99833.09;5073619;28;19913;-76
2023/10/18 01:02:10;;;;;;;;;;;;;;;13.14;63.75;99831.09;5073740;28;20385;-76
2023/10/18 01:04:36;;;;;;;;;;;;;;;13.12;64.79;99831.28;5073332;28;19928;-76
2023/10/18 01:07:15;;;;;;;;;;;;;;;13.09;63.31;99830.81;5073358;28;19912;-76
2023/10/18 01:09:47;;;;;;;;;;;;;;;13.03;64.90;99832.38;5073223;28;19912;-75
2023/10/18 01:12:14;;;;;;;;;;;;;;;13.03;64.98;99827.09;5072898;28;19912;-76
2023/10/18 01:14:40;;;;;;;;;;;;;;;13.02;65.55;99826.28;5072961;28;19916;-77
2023/10/18 01:17:06;;;;;;;;;;;;;;;13.03;64.92;99827.09;5073153;28;19923;-76
2023/10/18 01:19:32;;;;;;;;;;;;;;;13.05;63.29;99835.69;5073309;28;19912;-76
2023/10/18 01:21:57;;;;;;;;;;;;;;;13.03;66.01;99827.09;5073146;28;19920;-76
2023/10/18 01:24:22;;;;;;;;;;;;;;;13.03;63.23;99824.44;5073080;28;19913;-75
2023/10/18 01:26:48;;;;;;;;;;;;;;;13.02;64.32;99823.63;5072801;28;19916;-76
2023/10/18 01:29:13;;;;;;;;;;;;;;;13.00;64.66;99827.47;5070866;28;20049;-77
2023/10/18 01:31:45;;;;;;;;;;;;;;;12.99;63.77;99826.66;5073056;28;19920;-75
2023/10/18 01:34:10;;;;;;;;;;;;;;;13.01;64.02;99834.41;5072721;28;20411;-77
2023/10/18 01:36:39;;;;;;;;;;;;;;;13.04;63.68;99823.44;5071351;28;20003;-76
2023/10/18 01:39:09;;;;;;;;;;;;;;;13.09;64.86;99821.03;5072861;28;20389;-76
2023/10/18 01:41:37;;;;;;;;;;;;;;;13.13;63.00;99821.47;5072357;28;19912;-76
2023/10/18 01:44:06;;;;;;;;;;;;;;;13.13;63.94;99818.84;5072377;28;20397;-77
2023/10/18 01:46:36;;;;;;;;;;;;;;;13.09;64.26;99817.56;5072376;28;19912;-76
2023/10/18 01:49:01;;;;;;;;;;;;;;;13.07;65.64;99816.94;5072416;28;19917;-77
2023/10/18 01:51:27;;;;;;;;;;;;;;;13.07;65.51;99815.09;5072528;28;19913;-76
2023/10/18 01:53:54;;;;;;;;;;;;;;;13.09;65.54;99820.22;5072355;28;19923;-76
2023/10/18 01:56:21;;;;;;;;;;;;;;;13.09;64.03;99820.22;5072202;28;19966;-76
2023/10/18 01:58:46;;;;;;;;;;;;;;;13.08;63.52;99823.88;5072442;28;19912;-76
2023/10/18 02:01:13;;;;;;;;;;;;;;;13.08;65.06;99822.03;5070959;28;20390;-77
2023/10/18 02:03:39;;;;;;;;;;;;;;;13.09;65.71;99825.53;5072091;28;20494;-76
2023/10/18 02:06:06;;;;;;;;;;;;;;;13.08;63.58;99827.34;5072071;28;19913;-75
2023/10/18 02:08:33;;;;;;;;;;;;;;;13.07;65.78;99827.53;5070626;28;19919;-76
2023/10/18 02:10:58;;;;;;;;;;;;;;;13.04;65.11;99818.94;5072271;28;19923;-76
2023/10/18 02:13:24;;;;;;;;;;;;;;;13.05;66.11;99827.72;5072058;28;20403;-77
2023/10/18 02:15:50;;;;;;;;;;;;;;;13.10;64.52;99827.97;5071986;28;20312;-76
2023/10/18 02:18:16;;;;;;;;;;;;;;;13.11;65.34;99821.66;5071886;28;19920;-77
2023/10/18 02:20:50;;;;;;;;;;;;;;;13.12;62.56;99820.66;5072043;28;19936;-77
2023/10/18 02:23:16;;;;;;;;;;;;;;;13.07;64.92;99820.41;5072099;28;19999;-76
2023/10/18 02:28:10;;;;;;;;;;;;;;;13.08;63.84;99818.56;5072333;28;20377;-76
2023/10/18 02:30:36;;;;;;;;;;;;;;;13.03;63.73;99812.00;5070572;28;19913;-77
2023/10/18 02:33:04;;;;;;;;;;;;;;;13.04;63.24;99818.94;5071838;28;19962;-77
2023/10/18 02:35:29;;;;;;;;;;;;;;;13.05;65.02;99817.94;5071861;28;19960;-77
2023/10/18 02:37:55;;;;;;;;;;;;;;;13.01;63.93;99816.69;5071731;28;19987;-75
2023/10/18 02:40:29;;;;;;;;;;;;;;;12.98;64.46;99805.63;5071916;28;19966;-76
2023/10/18 02:42:55;;;;;;;;;;;;;;;12.97;64.24;99814.59;5072200;28;19970;-77
2023/10/18 02:45:22;;;;;;;;;;;;;;;12.95;64.51;99811.31;5071710;28;19913;-77
2023/10/18 02:47:51;;;;;;;;;;;;;;;12.94;64.75;99807.81;5071838;28;19966;-76
2023/10/18 02:50:17;;;;;;;;;;;;;;;12.95;64.75;99804.16;5071763;28;19923;-77
2023/10/18 02:52:43;;;;;;;;;;;;;;;12.94;64.81;99805.19;5071547;28;19969;-76
2023/10/18 02:55:12;;;;;;;;;;;;;;;13.00;63.82;99806.25;5071628;28;19916;-76
2023/10/18 02:57:37;;;;;;;;;;;;;;;13.02;64.84;99802.41;5071497;28;20382;-77
2023/10/18 03:00:11;;;;;;;;;;;;;;;13.08;64.44;99808.78;5071406;28;19918;-77
2023/10/18 03:02:36;;;;;;;;;;;;;;;13.10;63.73;99811.25;5070387;28;20289;-76
2023/10/18 03:05:05;;;;;;;;;;;;;;;13.11;64.67;99808.41;5071472;28;19928;-75
2023/10/18 03:07:30;;;;;;;;;;;;;;;13.11;64.74;99813.72;5071498;28;20006;-76
2023/10/18 03:10:02;;;;;;;;;;;;;;;13.14;65.10;99817.81;5071480;28;20462;-76
2023/10/18 03:12:28;;;;;;;;;;;;;;;13.18;65.00;99809.34;5071569;28;19905;-76
2023/10/18 03:20:29;;;;;;;;;;;;;;;13.14;64.77;99816.00;5071761;28;19912;-77
2023/10/18 03:22:39;;;;;;;;;;;;;;;13.14;63.82;99808.03;5063121;28;19942;-77
2023/10/18 03:25:09;;;;;;;;;;;;;;;13.13;65.44;99803.75;5071330;28;19916;-77
2023/10/18 03:27:41;;;;;;;;;;;;;;;13.14;64.55;99804.56;5071565;28;20427;-77
2023/10/18 03:30:40;;;;;;;;;;;;;;;13.12;65.13;99807.41;5071321;28;20381;-77
2023/10/18 03:32:54;;;;;;;;;;;;;;;13.12;64.46;99807.41;5070929;28;19917;-77
2023/10/18 03:35:21;;;;;;;;;;;;;;;13.10;65.32;99804.13;5071265;28;19920;-76
2023/10/18 03:37:47;;;;;;;;;;;;;;;13.13;65.03;99803.75;5071334;28;20384;-77
2023/10/18 03:40:47;;;;;;;;;;;;;;;13.13;66.36;99805.59;5071215;28;19947;-75
2023/10/18 03:43:09;;;;;;;;;;;;;;;13.12;64.89;99807.41;5067942;28;19912;-77
2023/10/18 03:48:26;;;;;;;;;;;;;;;13.11;65.41;99803.13;5071342;28;19985;-76
2023/10/18 03:50:54;;;;;;;;;;;;;;;13.10;65.11;99801.47;5071728;28;19913;-77
2023/10/18 03:53:21;;;;;;;;;;;;;;;13.02;65.76;99810.38;5075152;28;19919;-77
2023/10/18 03:55:49;;;;;;;;;;;;;;;13.03;65.41;99806.72;5074594;28;19916;-76
2023/10/18 03:58:17;;;;;;;;;;;;;;;13.03;64.81;99808.53;5074462;28;19924;-77
2023/10/18 04:00:47;;;;;;;;;;;;;;;12.98;63.94;99810.94;5074487;28;19955;-76
2023/10/18 04:03:15;;;;;;;;;;;;;;;12.94;64.82;99812.31;5074680;28;19966;-77
2023/10/18 04:05:45;;;;;;;;;;;;;;;12.95;65.45;99811.31;5073108;28;20023;-76
2023/10/18 04:08:20;;;;;;;;;;;;;;;12.94;65.00;99814.97;5074603;28;19920;-76
2023/10/18 04:10:55;;;;;;;;;;;;;;;12.92;65.03;99809.03;5074339;28;19919;-77
2023/10/18 04:13:24;;;;;;;;;;;;;;;12.91;64.07;99810.03;5074295;28;19936;-76
2023/10/18 04:15:59;;;;;;;;;;;;;;;12.92;64.28;99809.03;5074339;28;19916;-76
2023/10/18 04:18:29;;;;;;;;;;;;;;;12.91;65.34;99802.09;5074370;28;19917;-76
2023/10/18 04:20:59;;;;;;;;;;;;;;;12.94;64.52;99799.88;5074179;28;19924;-77
2023/10/18 04:23:27;;;;;;;;;;;;;;;12.95;63.88;99801.53;5074144;28;19912;-77
2023/10/18 04:26:03;;;;;;;;;;;;;;;12.93;64.13;99800.06;5074201;28;19919;-77
2023/10/18 04:28:29;;;;;;;;;;;;;;;12.92;64.42;99809.84;5074925;28;19918;-77
2023/10/18 04:30:59;;;;;;;;;;;;;;;12.91;65.19;99812.69;5078823;28;20401;-76
2023/10/18 04:33:28;;;;;;;;;;;;;;;12.90;64.77;99808.38;5079163;28;20382;-77
2023/10/18 04:35:55;;;;;;;;;;;;;;;12.88;63.58;99813.06;5074337;28;19912;-77
2023/10/18 04:38:30;;;;;;;;;;;;;;;12.87;65.11;99817.53;5074026;28;20009;-76
2023/10/18 04:40:57;;;;;;;;;;;;;;;12.87;65.09;99817.53;5074091;28;19923;-77
2023/10/18 04:43:27;;;;;;;;;;;;;;;12.88;65.30;99813.06;5073838;28;19921;-77
2023/10/18 04:45:57;;;;;;;;;;;;;;;12.88;65.91;99805.09;5072486;28;20319;-75
2023/10/18 04:48:44;;;;;;;;;;;;;;;12.92;64.83;99807.19;5072547;28;19927;-77
2023/10/18 04:51:07;;;;;;;;;;;;;;;12.95;64.28;99809.47;5073600;28;19913;-76
2023/10/18 04:53:33;;;;;;;;;;;;;;;12.97;66.20;99814.59;5073915;28;20298;-76
2023/10/18 04:55:58;;;;;;;;;;;;;;;13.02;65.05;99814.84;5073596;28;20385;-77
2023/10/18 04:58:29;;;;;;;;;;;;;;;13.03;66.37;99817.31;5073865;28;19916;-76
2023/10/18 05:00:57;;;;;;;;;;;;;;;13.04;66.36;99823.44;5073768;28;19913;-75
2023/10/18 05:03:30;;;;;;;;;;;;;;;13.07;65.91;99830.19;5072626;28;19913;-76
2023/10/18 05:05:56;;;;;;;;;;;;;;;13.08;65.12;99832.66;5073184;28;19931;-76
2023/10/18 05:08:23;;;;;;;;;;;;;;;13.13;64.77;99829.44;5073277;28;19978;-77
2023/10/18 05:10:51;;;;;;;;;;;;;;;13.14;65.23;99833.72;5073174;28;19946;-76
2023/10/18 05:13:32;;;;;;;;;;;;;;;13.17;64.57;99841.34;5073220;28;19912;-77
2023/10/18 05:16:01;;;;;;;;;;;;;;;13.14;65.23;99850.47;5073056;28;20440;-77
2023/10/18 05:18:26;;;;;;;;;;;;;;;13.11;64.80;99858.78;5073150;28;19974;-77
2023/10/18 05:23:21;;;;;;;;;;;;;;;13.16;65.37;99868.84;5072860;28;20011;-77
2023/10/18 05:25:47;;;;;;;;;;;;;;;13.17;64.90;99866.03;5072905;28;19912;-76
2023/10/18 05:28:15;;;;;;;;;;;;;;;13.15;64.82;99875.97;5073187;28;19995;-77
2023/10/18 05:34:18;;;;;;;;;;;;;;;13.10;65.48;99870.41;5072460;28;19943;-77
2023/10/18 05:41:29;;;;;;;;;;;;;;;13.13;66.82;99866.56;5072809;28;20377;-77
2023/10/18 05:44:00;;;;;;;;;;;;;;;13.08;65.86;99861.81;5072656;28;20465;-75
2023/10/18 05:46:32;;;;;;;;;;;;;;;13.02;65.67;99854.59;5072725;28;19912;-74
2023/10/18 05:49:00;;;;;;;;;;;;;;;13.01;65.13;99860.91;5073037;28;20003;-75
2023/10/18 05:51:34;;;;;;;;;;;;;;;13.02;65.70;99865.22;5073038;28;20052;-74
2023/10/18 05:54:00;;;;;;;;;;;;;;;13.07;65.58;99868.13;5071680;28;19916;-74
2023/10/18 05:56:32;;;;;;;;;;;;;;;13.03;67.18;99869.50;5067543;28;19923;-77
2023/10/18 05:59:27;;;;;;;;;;;;;;;13.05;66.88;99863.00;5073176;28;19970;-75
2023/10/18 06:02:00;;;;;;;;;;;;;;;13.09;65.44;99868.75;5074340;28;19935;-76
2023/10/18 06:04:25;;;;;;;;;;;;;;;13.13;66.55;99870.03;5073962;28;20008;-76
2023/10/18 06:07:10;;;;;;;;;;;;;;;13.15;65.38;99859.22;5071609;28;20409;-76
2023/10/18 06:12:22;;;;;;;;;;;;;;;13.17;64.11;99866.03;5061641;28;19916;-76
2023/10/18 06:14:51;;;;;;;;;;;;;;;13.20;64.23;99863.00;5064502;28;19924;-76
2023/10/18 06:17:22;;;;;;;;;;;;;;;13.18;65.98;99867.66;5067893;28;19920;-76
2023/10/18 06:19:50;;;;;;;;;;;;;;;13.19;65.69;99879.09;5072069;28;19912;-75
2023/10/18 06:22:16;;;;;;;;;;;;;;;13.20;66.73;99875.44;5071503;28;19970;-75
2023/10/18 06:24:48;;;;;;;;;;;;;;;13.24;65.73;99877.53;5063367;28;19917;-76
2023/10/18 06:27:16;;;;;;;;;;;;;;;13.25;65.67;99881.00;5071545;28;19916;-75
2023/10/18 06:29:51;;;;;;;;;;;;;;;13.24;66.00;99876.72;5063415;28;20319;-75
2023/10/18 06:32:17;;;;;;;;;;;;;;;13.17;67.60;99873.97;5060753;28;19948;-76
2023/10/18 06:34:43;;;;;;;;;;;;;;;13.13;66.76;99877.97;5068329;28;20393;-76
2023/10/18 06:37:10;;;;;;;;;;;;;;;13.22;66.07;99890.16;5071166;28;20401;-76
2023/10/18 06:39:35;;;;;;;;;;;;;;;13.27;67.79;99879.81;5071257;28;20397;-75
2023/10/18 06:42:06;;;;;;;;;;;;;;;13.33;66.83;99872.94;5069831;28;19916;-77
2023/10/18 06:44:33;;;;;;;;;;;;;;;13.43;65.77;99880.63;5071187;28;19913;-77
2023/10/18 06:47:01;;;;;;;;;;;;;;;13.49;65.82;99882.50;5062141;28;19924;-76
2023/10/18 06:49:26;;;;;;;;;;;;;;;13.55;65.05;99887.88;5070378;28;20009;-75
2023/10/18 06:51:52;;;;;;;;;;;;;;;13.63;65.70;99882.44;5071805;28;19947;-76
2023/10/18 06:54:32;;;;;;;;;;;;;;;13.72;66.21;99885.81;5073487;28;20043;-74
2023/10/18 06:57:02;;;;;;;;;;;;;;;13.77;65.32;99887.88;5059267;28;19920;-77
2023/10/18 06:59:28;;;;;;;;;;;;;;;13.80;65.67;99883.00;5054954;28;19920;-74
2023/10/18 07:01:59;;;;;;;;;;;;;;;13.79;65.24;99877.91;5070969;28;19916;-77
2023/10/18 07:04:28;;;;;;;;;;;;;;;13.77;65.29;99882.56;5057551;28;19928;-77
2023/10/18 07:06:57;;;;;;;;;;;;;;;13.74;64.81;99885.59;5063580;28;19959;-76
2023/10/18 07:09:25;;;;;;;;;;;;;;;13.76;64.58;99878.28;5065891;28;20424;-76
2023/10/18 07:11:51;;;;;;;;;;;;;;;13.71;66.77;99888.66;5071517;28;19912;-74
2023/10/18 07:14:19;;;;;;;;;;;;;;;13.61;64.94;99886.31;5071326;28;19912;-77
2023/10/18 07:16:48;;;;;;;;;;;;;;;13.63;66.11;99889.59;5067248;28;20282;-76
2023/10/18 07:21:57;;;;;;;;;;;;;;;13.78;64.96;99898.31;5069971;28;19974;-77
2023/10/18 07:24:32;;;;;;;;;;;;;;;13.68;67.43;99895.16;5071172;28;19916;-77
2023/10/18 07:26:59;;;;;;;;;;;;;;;13.56;67.06;99904.63;5073762;28;19935;-77
2023/10/18 07:29:27;;;;;;;;;;;;;;;13.62;66.45;99903.88;5067338;28;20003;-77
2023/10/18 07:31:53;;;;;;;;;;;;;;;13.69;66.40;99904.75;5073078;28;19923;-77
2023/10/18 07:34:25;;;;;;;;;;;;;;;13.79;65.46;99891.16;5075029;28;19912;-76
2023/10/18 07:36:54;;;;;;;;;;;;;;;13.87;65.86;99897.16;5074951;28;19916;-77
2023/10/18 07:39:24;;;;;;;;;;;;;;;13.94;66.23;99900.69;5071507;28;19932;-77
2023/10/18 07:41:50;;;;;;;;;;;;;;;14.04;65.16;99888.94;5067715;28;20372;-75
2023/10/18 07:44:15;;;;;;;;;;;;;;;14.15;65.38;99897.22;5070472;28;19978;-77
2023/10/18 07:46:40;;;;;;;;;;;;;;;14.18;66.95;99896.84;5072743;28;19929;-77
2023/10/18 07:49:11;;;;;;;;;;;;;;;14.24;64.40;99893.41;5067783;28;20301;-75
2023/10/18 07:51:49;;;;;;;;;;;;;;;14.32;64.54;99890.59;5069298;28;19931;-74
2023/10/18 07:54:20;;;;;;;;;;;;;;;14.43;63.50;99893.78;5074572;28;19995;-75
2023/10/18 07:56:49;;;;;;;;;;;;;;;14.43;64.38;99889.28;5074602;28;20019;-76
2023/10/18 07:59:33;;;;;;;;;;;;;;;14.43;64.75;99889.28;5068292;28;19921;-76
2023/10/18 08:04:43;;;;;;;;;;;;;;;14.54;64.58;99886.09;5074026;28;19951;-77
2023/10/18 08:07:15;;;;;;;;;;;;;;;14.72;64.29;99892.72;5074374;28;20039;-76
2023/10/18 08:09:41;;;;;;;;;;;;;;;14.87;63.28;99896.09;5074098;28;19939;-76
2023/10/18 08:12:08;;;;;;;;;;;;;;;14.95;62.40;99895.94;5069629;28;19923;-77
2023/10/18 08:14:33;;;;;;;;;;;;;;;14.93;62.16;99890.00;5073833;28;19917;-77
2023/10/18 08:17:08;;;;;;;;;;;;;;;15.00;61.89;99895.34;5074293;28;19916;-76
2023/10/18 08:19:43;;;;;;;;;;;;;;;15.09;61.82;99894.97;5070714;28;20012;-76
2023/10/18 08:24:36;;;;;;;;;;;;;;;15.17;62.00;99892.13;5074429;28;20359;-76
2023/10/18 08:27:10;;;;;;;;;;;;;;;15.21;61.21;99893.38;5072616;28;20306;-77
2023/10/18 08:29:36;;;;;;;;;;;;;;;15.23;61.57;99890.53;5074160;28;19959;-76
2023/10/18 08:32:18;;;;;;;;;;;;;;;15.29;60.71;99895.03;5066062;28;19944;-78
2023/10/18 08:34:44;;;;;;;;;;;;;;;15.28;60.70;99896.06;5061060;28;19963;-74
2023/10/18 08:37:16;;;;;;;;;;;;;;;15.30;60.10;99898.53;5073560;28;19998;-76
2023/10/18 08:39:52;;;;;;;;;;;;;;;15.32;59.93;99897.31;5072118;28;19922;-75
2023/10/18 08:42:21;;;;;;;;;;;;;;;15.36;60.09;99901.19;5070217;28;19916;-77
2023/10/18 08:44:50;;;;;;;;;;;;;;;15.41;59.52;99908.59;5072104;28;19916;-76
2023/10/18 08:47:17;;;;;;;;;;;;;;;15.45;59.86;99913.31;5072039;28;19985;-77
2023/10/18 08:49:53;;;;;;;;;;;;;;;15.39;60.53;99908.78;5073178;28;19916;-76
2023/10/18 08:52:28;;;;;;;;;;;;;;;15.37;61.08;99912.66;5069886;28;19974;-76
2023/10/18 08:54:55;;;;;;;;;;;;;;;15.30;60.38;99915.31;5067801;28;19916;-76
2023/10/18 08:57:36;;;;;;;;;;;;;;;15.21;61.44;99921.81;5067058;28;19970;-77
2023/10/18 09:00:17;;;;;;;;;;;;;;;15.21;61.76;99917.31;5072148;28;19925;-76
2023/10/18 09:02:44;;;;;;;;;;;;;;;15.24;60.62;99908.94;5077160;28;19917;-78
2023/10/18 09:05:11;;;;;;;;;;;;;;;15.21;61.85;99909.34;5075505;28;19921;-76
2023/10/18 09:07:42;;;;;;;;;;;;;;;15.17;60.27;99907.28;5069199;28;20402;-76
2023/10/18 09:10:13;;;;;;;;;;;;;;;15.16;60.63;99910.97;5053291;28;20330;-77
2023/10/18 09:15:27;;;;;;;;;;;;;;;15.27;61.10;99902.41;5073318;28;19916;-75
2023/10/18 09:18:05;;;;;;;;;;;;;;;15.42;60.53;99902.25;5071226;28;20385;-76
2023/10/18 09:20:31;;;;;;;;;;;;;;;15.43;60.21;99907.38;5054635;28;19916;-77
2023/10/18 09:23:03;;;;;;;;;;;;;;;15.43;60.22;99895.91;5070481;28;20436;-74
2023/10/18 09:25:32;;;;;;;;;;;;;;;15.48;59.58;99902.25;5069536;28;19931;-77
2023/10/18 09:28:09;;;;;;;;;;;;;;;15.48;59.37;99902.25;5052945;28;19924;-76
2023/10/18 09:30:35;;;;;;;;;;;;;;;15.52;59.90;99898.19;5052951;28;19951;-76
2023/10/18 09:33:01;;;;;;;;;;;;;;;15.01;59.76;99795.94;5065670;28;19952;-76
2023/10/18 09:35:27;;;;;;;;;;;;;;;15.74;59.58;99898.88;5072919;28;19912;-74
2023/10/18 09:37:52;;;;;;;;;;;;;;;15.80;59.27;99900.75;5072682;28;19917;-76
2023/10/18 09:40:18;;;;;;;;;;;;;;;15.95;59.17;99905.88;5072704;28;20368;-75
2023/10/18 09:42:44;;;;;;;;;;;;;;;16.14;58.93;99904.25;5072762;28;19966;-75
2023/10/18 09:45:09;;;;;;;;;;;;;;;16.13;59.36;99903.41;5072341;28;19928;-75
2023/10/18 09:47:36;;;;;;;;;;;;;;;16.21;58.53;99905.88;5072597;28;19973;-74
2023/10/18 09:50:06;;;;;;;;;;;;;;;16.26;58.74;99904.44;5072147;28;19919;-73
2023/10/18 09:52:32;;;;;;;;;;;;;;;16.33;58.37;99898.06;5072306;28;19923;-76
2023/10/18 09:55:00;;;;;;;;;;;;;;;16.32;58.20;99896.44;5069033;28;19920;-76
2023/10/18 09:57:33;;;;;;;;;;;;;;;16.29;58.17;99896.03;5070790;28;19920;-73
2023/10/18 10:00:08;;;;;;;;;;;;;;;16.18;58.60;99895.63;5072367;28;19916;-74
2023/10/18 10:02:34;;;;;;;;;;;;;;;16.09;58.20;99888.88;5072465;28;19913;-74
2023/10/18 10:05:06;;;;;;;;;;;;;;;16.12;58.11;99880.47;5072228;28;19927;-73
2023/10/18 10:07:39;;;;;;;;;;;;;;;16.21;59.01;99881.91;5068599;28;19912;-74
2023/10/18 10:10:09;;;;;;;;;;;;;;;16.36;57.10;99880.88;5070771;28;20445;-76
2023/10/18 10:12:35;;;;;;;;;;;;;;;16.46;57.79;99886.63;5057026;28;19924;-76
2023/10/18 10:15:02;;;;;;;;;;;;;;;16.51;57.53;99881.47;5052502;28;20381;-77
2023/10/18 10:17:29;;;;;;;;;;;;;;;16.56;57.94;99875.50;5050521;28;19917;-76
2023/10/18 10:19:56;;;;;;;;;;;;;;;16.64;56.79;99876.13;5058574;28;20462;-76
2023/10/18 10:22:25;;;;;;;;;;;;;;;16.63;56.70;99879.81;5061941;28;19916;-76
2023/10/18 10:25:11;;;;;;;;;;;;;;;16.58;56.54;99874.28;5055730;28;19920;-76
2023/10/18 10:30:03;;;;;;;;;;;;;;;16.70;56.63;99869.97;5071390;28;20335;-77
2023/10/18 10:32:30;;;;;;;;;;;;;;;16.76;56.47;99868.31;5061603;28;19916;-76
2023/10/18 10:35:24;;;;;;;;;;;;;;;16.74;56.60;99868.53;5053025;28;19920;-74
2023/10/18 10:37:49;;;;;;;;;;;;;;;16.68;56.34;99865.88;5052952;28;19925;-75
2023/10/18 10:43:08;;;;;;;;;;;;;;;16.75;56.53;99866.69;5064015;28;19921;-75
2023/10/18 10:48:15;;;;;;;;;;;;;;;16.77;56.59;99867.28;5069051;28;19920;-75
2023/10/18 10:50:53;;;;;;;;;;;;;;;16.76;56.20;99862.97;5057121;28;19923;-77
2023/10/18 10:53:30;;;;;;;;;;;;;;;16.78;56.29;99867.06;5059723;28;19916;-74
2023/10/18 10:55:56;;;;;;;;;;;;;;;16.82;55.98;99865.63;5071451;28;19912;-76
2023/10/18 10:58:22;;;;;;;;;;;;;;;16.79;55.98;99868.72;5057254;28;19921;-74
2023/10/18 11:01:06;;;;;;;;;;;;;;;16.81;55.99;99863.16;5051689;28;19919;-74
2023/10/18 11:03:53;;;;;;;;;;;;;;;16.92;55.44;99878.50;5054232;28;19913;-75
2023/10/18 11:06:26;;;;;;;;;;;;;;;16.93;55.64;99856.16;5054245;28;19975;-77
2023/10/18 11:08:52;;;;;;;;;;;;;;;17.06;55.48;99853.41;5058222;28;19923;-76
2023/10/18 11:11:21;;;;;;;;;;;;;;;17.18;55.13;99842.09;5055679;28;19913;-75
2023/10/18 11:13:50;;;;;;;;;;;;;;;17.38;55.25;99843.63;5071576;28;20327;-76
2023/10/18 11:16:22;;;;;;;;;;;;;;;17.49;54.50;99844.78;5068596;28;19967;-75
2023/10/18 11:18:52;;;;;;;;;;;;;;;17.57;54.31;99841.84;5068753;28;19939;-75
2023/10/18 11:21:24;;;;;;;;;;;;;;;17.62;54.09;99846.56;5075021;28;20273;-76
2023/10/18 11:23:57;;;;;;;;;;;;;;;17.67;53.85;99838.75;5075236;28;20397;-76
2023/10/18 11:26:24;;;;;;;;;;;;;;;17.71;53.98;99830.06;5074177;28;19917;-75
2023/10/18 11:28:50;;;;;;;;;;;;;;;17.78;53.67;99833.50;5064941;28;20004;-77
2023/10/18 11:31:16;;;;;;;;;;;;;;;17.84;53.21;99828.38;5071663;28;20020;-75
2023/10/18 11:33:47;;;;;;;;;;;;;;;17.88;53.34;99825.03;5067127;28;19916;-76
2023/10/18 11:36:12;;;;;;;;;;;;;;;17.90;53.37;99825.63;5068130;28;19920;-76
2023/10/18 11:38:38;;;;;;;;;;;;;;;17.76;53.42;99818.75;5070276;28;20399;-76
2023/10/18 11:41:11;;;;;;;;;;;;;;;17.72;53.21;99821.03;5067024;28;19916;-76
2023/10/18 11:43:40;;;;;;;;;;;;;;;17.70;53.04;99814.28;5072423;28;19974;-75
2023/10/18 11:46:13;;;;;;;;;;;;;;;17.71;53.13;99818.56;5073723;28;20285;-75
2023/10/18 11:48:40;;;;;;;;;;;;;;;17.76;52.89;99819.56;5067469;28;20007;-76
2023/10/18 11:51:08;;;;;;;;;;;;;;;17.83;53.02;99810.66;5073890;28;19923;-76
2023/10/18 11:53:35;;;;;;;;;;;;;;;17.99;52.82;99807.47;5074760;28;20309;-76
2023/10/18 11:56:01;;;;;;;;;;;;;;;18.06;52.90;99809.03;5073326;28;19943;-75
2023/10/18 11:58:30;;;;;;;;;;;;;;;18.12;52.42;99811.88;5074449;28;19916;-76
2023/10/18 12:01:14;;;;;;;;;;;;;;;18.10;51.90;99810.25;5074787;28;19916;-77
2023/10/18 12:03:41;;;;;;;;;;;;;;;18.09;52.08;99797.09;5072052;28;20010;-76
2023/10/18 12:06:11;;;;;;;;;;;;;;;18.10;52.22;99801.41;5072336;28;19924;-76
2023/10/18 12:08:40;;;;;;;;;;;;;;;18.18;51.93;99800.31;5069916;28;19969;-78
2023/10/18 12:11:08;;;;;;;;;;;;;;;18.22;51.71;99798.81;5071306;28;19917;-76
2023/10/18 12:13:33;;;;;;;;;;;;;;;18.21;51.38;99790.00;5052511;28;19963;-76
2023/10/18 12:16:00;;;;;;;;;;;;;;;18.23;51.70;99787.91;5087102;28;19920;-76
2023/10/18 12:18:27;;;;;;;;;;;;;;;18.30;51.52;99785.97;5067981;28;20511;-77
2023/10/18 12:20:54;;;;;;;;;;;;;;;18.31;51.46;99787.63;5070849;28;20321;-75
2023/10/18 12:23:19;;;;;;;;;;;;;;;18.34;50.52;99783.69;5073686;28;20409;-75
2023/10/18 12:25:45;;;;;;;;;;;;;;;18.31;49.84;99779.59;5073058;28;19927;-76
2023/10/18 12:28:35;;;;;;;;;;;;;;;18.29;50.58;99770.16;5071515;28;19917;-77
2023/10/18 12:31:09;;;;;;;;;;;;;;;18.19;49.99;99773.34;5068791;28;19923;-78
2023/10/18 12:33:35;;;;;;;;;;;;;;;18.14;50.60;99780.41;5063226;28;20397;-76
2023/10/18 12:36:00;;;;;;;;;;;;;;;18.10;50.93;99767.50;5052497;28;20014;-76
2023/10/18 12:38:36;;;;;;;;;;;;;;;18.07;50.84;99773.28;5059778;28;19921;-74
2023/10/18 12:41:08;;;;;;;;;;;;;;;18.04;50.12;99767.56;5069584;28;19974;-76
2023/10/18 12:43:39;;;;;;;;;;;;;;;18.05;49.49;99764.66;5066928;28;20320;-77
2023/10/18 12:46:04;;;;;;;;;;;;;;;18.03;49.53;99756.06;5070976;28;20380;-76
2023/10/18 12:48:31;;;;;;;;;;;;;;;18.07;50.27;99761.75;5055116;28;19917;-77
2023/10/18 12:50:56;;;;;;;;;;;;;;;18.07;50.14;99761.75;5065478;28;19931;-76
2023/10/18 12:55:57;;;;;;;;;;;;;;;18.07;49.74;99761.75;5072450;28;20317;-76
2023/10/18 12:58:28;;;;;;;;;;;;;;;18.05;49.90;99751.31;5071350;28;20385;-76
2023/10/18 13:00:55;;;;;;;;;;;;;;;18.01;50.21;99757.31;5072450;28;19924;-76
2023/10/18 13:03:21;;;;;;;;;;;;;;;17.97;49.74;99761.47;5073251;28;20396;-77
2023/10/18 13:05:51;;;;;;;;;;;;;;;17.89;49.31;99754.56;5071620;28;19920;-76
2023/10/18 13:08:23;;;;;;;;;;;;;;;17.87;50.11;99758.47;5071915;28;19912;-76
2023/10/18 13:10:59;;;;;;;;;;;;;;;17.85;50.12;99758.69;5071449;28;20451;-75
2023/10/18 13:13:26;;;;;;;;;;;;;;;17.84;50.30;99766.94;5070572;28;19924;-75
2023/10/18 13:15:51;;;;;;;;;;;;;;;17.76;50.16;99747.44;5070062;28;20373;-77
2023/10/18 13:18:17;;;;;;;;;;;;;;;17.71;50.36;99762.50;5070808;28;19921;-77
2023/10/18 13:20:45;;;;;;;;;;;;;;;17.70;51.00;99761.69;5073070;28;19913;-77
2023/10/18 13:23:12;;;;;;;;;;;;;;;17.70;50.97;99764.34;5072853;28;19917;-77
2023/10/18 13:25:49;;;;;;;;;;;;;;;17.72;51.08;99772.97;5070906;28;20371;-78
2023/10/18 13:28:24;;;;;;;;;;;;;;;17.69;50.75;99764.56;5072213;28;19917;-77
2023/10/18 13:30:49;;;;;;;;;;;;;;;17.68;50.96;99773.63;5069009;28;19994;-76
2023/10/18 13:33:16;;;;;;;;;;;;;;;17.68;51.56;99773.63;5060177;28;20393;-76
2023/10/18 13:35:43;;;;;;;;;;;;;;;17.68;51.41;99771.75;5068195;28;19916;-76
2023/10/18 13:38:09;;;;;;;;;;;;;;;17.68;51.19;99773.63;5072093;28;19920;-76
2023/10/18 13:40:37;;;;;;;;;;;;;;;17.61;51.34;99773.63;5062952;28;19916;-76
2023/10/18 13:43:06;;;;;;;;;;;;;;;17.66;51.77;99776.50;5072104;28;20290;-77